sensor_id;sensor_type;location;lat;lon;timestamp;noise_LAeq;noise_LA_min;noise_LA_max;noise_LA01;noise_LA95
37163;Laerm;23057;48.554;14.454;2023-02-11T00:00:58;50.06;48.94;52.34;;
37163;Laerm;23057;48.554;14.454;2023-02-11T00:03:29;50.08;48.91;52.52;;
37163;Laerm;23057;48.554;14.454;2023-02-11T00:06:03;50.06;48.94;52.57;;
37163;Laerm;23057;48.554;14.454;2023-02-11T00:08:34;50.06;48.99;52.70;;
37163;Laerm;23057;48.554;14.454;2023-02-11T00:11:05;50.06;48.92;53.63;;
37163;Laerm;23057;48.554;14.454;2023-02-11T00:13:37;50.06;49.08;52.47;;
37163;Laerm;23057;48.554;14.454;2023-02-11T00:16:14;50.06;48.91;53.22;;
37163;Laerm;23057;48.554;14.454;2023-02-11T00:18:46;50.06;48.99;51.63;;
37163;Laerm;23057;48.554;14.454;2023-02-11T00:21:21;50.07;48.99;52.17;;
37163;Laerm;23057;48.554;14.454;2023-02-11T00:23:53;50.07;49.04;52.21;;
37163;Laerm;23057;48.554;14.454;2023-02-11T00:26:34;50.07;48.96;52.20;;
37163;Laerm;23057;48.554;14.454;2023-02-11T00:29:05;50.06;49.06;51.45;;
37163;Laerm;23057;48.554;14.454;2023-02-11T00:31:36;50.05;48.99;52.34;;
37163;Laerm;23057;48.554;14.454;2023-02-11T00:34:06;50.06;48.91;51.81;;
37163;Laerm;23057;48.554;14.454;2023-02-11T00:36:37;50.06;49.11;52.77;;
37163;Laerm;23057;48.554;14.454;2023-02-11T00:39:08;50.05;48.95;51.59;;
37163;Laerm;23057;48.554;14.454;2023-02-11T00:41:39;50.05;48.88;51.84;;
37163;Laerm;23057;48.554;14.454;2023-02-11T00:44:10;50.05;48.88;51.72;;
37163;Laerm;23057;48.554;14.454;2023-02-11T00:46:41;50.05;48.98;52.17;;
37163;Laerm;23057;48.554;14.454;2023-02-11T00:49:13;50.07;48.98;52.88;;
37163;Laerm;23057;48.554;14.454;2023-02-11T00:51:44;50.06;48.98;52.68;;
37163;Laerm;23057;48.554;14.454;2023-02-11T00:54:14;50.05;48.95;52.08;;
37163;Laerm;23057;48.554;14.454;2023-02-11T00:56:45;50.05;49.04;52.47;;
37163;Laerm;23057;48.554;14.454;2023-02-11T00:59:16;50.06;49.02;52.28;;
37163;Laerm;23057;48.554;14.454;2023-02-11T01:01:46;50.06;48.92;52.06;;
37163;Laerm;23057;48.554;14.454;2023-02-11T01:04:17;50.06;48.87;52.18;;
37163;Laerm;23057;48.554;14.454;2023-02-11T01:06:48;50.05;48.94;52.71;;
37163;Laerm;23057;48.554;14.454;2023-02-11T01:09:18;50.07;49.03;53.56;;
37163;Laerm;23057;48.554;14.454;2023-02-11T01:11:50;50.08;48.71;52.44;;
37163;Laerm;23057;48.554;14.454;2023-02-11T01:14:21;50.07;48.99;52.15;;
37163;Laerm;23057;48.554;14.454;2023-02-11T01:16:52;50.07;48.94;52.83;;
37163;Laerm;23057;48.554;14.454;2023-02-11T01:19:22;50.06;49.10;51.72;;
37163;Laerm;23057;48.554;14.454;2023-02-11T01:21:53;50.06;48.96;52.82;;
37163;Laerm;23057;48.554;14.454;2023-02-11T01:24:24;50.05;49.00;52.62;;
37163;Laerm;23057;48.554;14.454;2023-02-11T01:26:55;50.05;48.92;53.12;;
37163;Laerm;23057;48.554;14.454;2023-02-11T01:29:26;50.06;48.96;53.43;;
37163;Laerm;23057;48.554;14.454;2023-02-11T01:31:57;50.06;48.81;52.50;;
37163;Laerm;23057;48.554;14.454;2023-02-11T01:34:27;50.06;48.99;51.84;;
37163;Laerm;23057;48.554;14.454;2023-02-11T01:36:59;50.06;49.06;52.60;;
37163;Laerm;23057;48.554;14.454;2023-02-11T01:39:33;50.06;48.95;51.27;;
37163;Laerm;23057;48.554;14.454;2023-02-11T01:42:04;50.05;48.87;51.51;;
37163;Laerm;23057;48.554;14.454;2023-02-11T01:44:37;50.05;48.69;52.03;;
37163;Laerm;23057;48.554;14.454;2023-02-11T01:47:09;50.04;48.99;52.19;;
37163;Laerm;23057;48.554;14.454;2023-02-11T01:49:50;50.05;48.87;52.21;;
37163;Laerm;23057;48.554;14.454;2023-02-11T01:52:31;50.05;48.91;51.83;;
37163;Laerm;23057;48.554;14.454;2023-02-11T01:55:11;50.06;48.96;51.34;;
37163;Laerm;23057;48.554;14.454;2023-02-11T01:58:04;50.05;48.85;52.09;;
37163;Laerm;23057;48.554;14.454;2023-02-11T02:00:38;50.05;48.91;52.22;;
37163;Laerm;23057;48.554;14.454;2023-02-11T02:03:19;50.06;48.92;52.76;;
37163;Laerm;23057;48.554;14.454;2023-02-11T02:06:09;50.06;48.90;52.64;;
37163;Laerm;23057;48.554;14.454;2023-02-11T02:08:52;50.06;49.06;52.51;;
37163;Laerm;23057;48.554;14.454;2023-02-11T02:11:26;50.06;49.02;52.41;;
37163;Laerm;23057;48.554;14.454;2023-02-11T02:13:57;50.05;48.96;51.83;;
37163;Laerm;23057;48.554;14.454;2023-02-11T02:16:34;50.06;48.81;52.11;;
37163;Laerm;23057;48.554;14.454;2023-02-11T02:36:36;50.07;48.96;55.12;;
37163;Laerm;23057;48.554;14.454;2023-02-11T02:39:23;50.05;49.02;51.49;;
37163;Laerm;23057;48.554;14.454;2023-02-11T02:41:56;50.06;49.07;51.95;;
37163;Laerm;23057;48.554;14.454;2023-02-11T02:44:28;50.05;48.88;51.53;;
37163;Laerm;23057;48.554;14.454;2023-02-11T02:46:59;50.05;48.87;52.04;;
37163;Laerm;23057;48.554;14.454;2023-02-11T02:49:30;50.05;48.77;51.64;;
37163;Laerm;23057;48.554;14.454;2023-02-11T02:52:28;50.05;48.96;52.05;;
37163;Laerm;23057;48.554;14.454;2023-02-11T02:55:33;50.04;48.85;51.31;;
37163;Laerm;23057;48.554;14.454;2023-02-11T03:04:22;50.03;49.00;52.10;;
37163;Laerm;23057;48.554;14.454;2023-02-11T03:07:23;50.03;48.99;52.28;;
37163;Laerm;23057;48.554;14.454;2023-02-11T03:10:05;50.04;48.98;51.54;;
37163;Laerm;23057;48.554;14.454;2023-02-11T03:12:39;50.04;49.00;51.35;;
37163;Laerm;23057;48.554;14.454;2023-02-11T03:15:13;50.04;49.00;51.67;;
37163;Laerm;23057;48.554;14.454;2023-02-11T03:17:50;50.03;48.91;52.60;;
37163;Laerm;23057;48.554;14.454;2023-02-11T03:20:22;50.05;48.83;51.33;;
37163;Laerm;23057;48.554;14.454;2023-02-11T03:23:06;50.03;49.00;51.13;;
37163;Laerm;23057;48.554;14.454;2023-02-11T03:25:45;50.04;48.76;52.09;;
37163;Laerm;23057;48.554;14.454;2023-02-11T03:28:35;50.03;49.04;51.77;;
37163;Laerm;23057;48.554;14.454;2023-02-11T03:31:17;50.04;48.88;51.70;;
37163;Laerm;23057;48.554;14.454;2023-02-11T03:34:09;50.04;49.02;51.52;;
37163;Laerm;23057;48.554;14.454;2023-02-11T03:36:51;50.04;48.88;51.56;;
37163;Laerm;23057;48.554;14.454;2023-02-11T03:39:30;50.03;48.95;51.44;;
37163;Laerm;23057;48.554;14.454;2023-02-11T03:42:07;50.02;48.91;51.35;;
37163;Laerm;23057;48.554;14.454;2023-02-11T03:44:47;50.03;48.96;52.29;;
37163;Laerm;23057;48.554;14.454;2023-02-11T03:47:24;50.03;48.61;52.42;;
37163;Laerm;23057;48.554;14.454;2023-02-11T03:49:59;50.05;49.00;52.40;;
37163;Laerm;23057;48.554;14.454;2023-02-11T03:52:36;50.04;49.02;51.42;;
37163;Laerm;23057;48.554;14.454;2023-02-11T03:55:15;50.03;48.79;51.68;;
37163;Laerm;23057;48.554;14.454;2023-02-11T03:57:47;50.04;49.00;52.21;;
37163;Laerm;23057;48.554;14.454;2023-02-11T04:00:18;50.03;49.00;51.58;;
37163;Laerm;23057;48.554;14.454;2023-02-11T04:02:49;50.04;48.98;51.40;;
37163;Laerm;23057;48.554;14.454;2023-02-11T04:05:20;50.04;49.00;51.49;;
37163;Laerm;23057;48.554;14.454;2023-02-11T04:07:50;50.04;49.00;52.38;;
37163;Laerm;23057;48.554;14.454;2023-02-11T04:10:21;50.05;49.03;51.30;;
37163;Laerm;23057;48.554;14.454;2023-02-11T04:12:52;50.04;48.96;51.70;;
37163;Laerm;23057;48.554;14.454;2023-02-11T04:15:23;50.04;48.81;51.28;;
37163;Laerm;23057;48.554;14.454;2023-02-11T04:17:54;50.04;49.00;52.37;;
37163;Laerm;23057;48.554;14.454;2023-02-11T04:20:25;50.03;49.00;51.32;;
37163;Laerm;23057;48.554;14.454;2023-02-11T04:22:56;50.04;48.91;52.08;;
37163;Laerm;23057;48.554;14.454;2023-02-11T04:25:26;50.04;48.95;51.80;;
37163;Laerm;23057;48.554;14.454;2023-02-11T04:27:57;50.04;48.88;51.56;;
37163;Laerm;23057;48.554;14.454;2023-02-11T04:30:28;50.04;48.52;51.54;;
37163;Laerm;23057;48.554;14.454;2023-02-11T04:32:59;50.03;48.83;51.17;;
37163;Laerm;23057;48.554;14.454;2023-02-11T04:35:29;50.04;48.98;51.29;;
37163;Laerm;23057;48.554;14.454;2023-02-11T04:38:00;50.05;49.06;51.80;;
37163;Laerm;23057;48.554;14.454;2023-02-11T04:40:31;50.05;48.90;51.77;;
37163;Laerm;23057;48.554;14.454;2023-02-11T04:43:02;50.05;48.98;52.43;;
37163;Laerm;23057;48.554;14.454;2023-02-11T04:45:33;50.05;48.99;51.70;;
37163;Laerm;23057;48.554;14.454;2023-02-11T04:48:04;50.04;48.90;51.53;;
37163;Laerm;23057;48.554;14.454;2023-02-11T04:50:34;50.05;48.94;51.51;;
37163;Laerm;23057;48.554;14.454;2023-02-11T04:53:05;50.03;49.10;51.02;;
37163;Laerm;23057;48.554;14.454;2023-02-11T04:55:36;50.04;48.69;52.40;;
37163;Laerm;23057;48.554;14.454;2023-02-11T04:58:07;50.04;49.00;51.33;;
37163;Laerm;23057;48.554;14.454;2023-02-11T05:00:37;50.05;49.08;51.29;;
37163;Laerm;23057;48.554;14.454;2023-02-11T05:03:08;50.04;48.95;51.47;;
37163;Laerm;23057;48.554;14.454;2023-02-11T05:05:40;50.05;49.03;52.30;;
37163;Laerm;23057;48.554;14.454;2023-02-11T05:08:12;50.06;48.91;52.90;;
37163;Laerm;23057;48.554;14.454;2023-02-11T05:10:45;50.06;48.77;52.60;;
37163;Laerm;23057;48.554;14.454;2023-02-11T05:13:17;50.05;48.91;52.57;;
37163;Laerm;23057;48.554;14.454;2023-02-11T05:15:48;50.04;49.03;52.37;;
37163;Laerm;23057;48.554;14.454;2023-02-11T05:18:19;50.06;49.08;51.33;;
37163;Laerm;23057;48.554;14.454;2023-02-11T05:20:50;50.04;48.92;51.26;;
37163;Laerm;23057;48.554;14.454;2023-02-11T05:23:20;50.05;48.83;52.05;;
37163;Laerm;23057;48.554;14.454;2023-02-11T05:25:51;50.05;48.97;51.88;;
37163;Laerm;23057;48.554;14.454;2023-02-11T05:28:22;50.04;49.02;51.42;;
37163;Laerm;23057;48.554;14.454;2023-02-11T05:30:53;50.04;48.94;51.76;;
37163;Laerm;23057;48.554;14.454;2023-02-11T05:33:24;50.05;49.03;51.76;;
37163;Laerm;23057;48.554;14.454;2023-02-11T05:36:00;50.04;48.91;52.01;;
37163;Laerm;23057;48.554;14.454;2023-02-11T05:38:32;50.05;48.83;51.43;;
37163;Laerm;23057;48.554;14.454;2023-02-11T05:41:04;50.04;48.93;51.33;;
37163;Laerm;23057;48.554;14.454;2023-02-11T05:43:35;50.05;48.92;51.47;;
37163;Laerm;23057;48.554;14.454;2023-02-11T05:46:06;50.04;48.90;51.30;;
37163;Laerm;23057;48.554;14.454;2023-02-11T05:48:37;50.05;48.92;51.44;;
37163;Laerm;23057;48.554;14.454;2023-02-11T05:51:08;50.04;48.95;51.24;;
37163;Laerm;23057;48.554;14.454;2023-02-11T05:53:38;50.05;48.99;51.45;;
37163;Laerm;23057;48.554;14.454;2023-02-11T05:56:09;50.05;49.00;52.21;;
37163;Laerm;23057;48.554;14.454;2023-02-11T05:58:41;50.04;48.90;52.49;;
37163;Laerm;23057;48.554;14.454;2023-02-11T06:01:11;50.04;49.03;51.72;;
37163;Laerm;23057;48.554;14.454;2023-02-11T06:03:42;50.05;49.08;51.39;;
37163;Laerm;23057;48.554;14.454;2023-02-11T06:06:13;50.04;48.99;52.27;;
37163;Laerm;23057;48.554;14.454;2023-02-11T06:08:43;50.05;49.08;51.95;;
37163;Laerm;23057;48.554;14.454;2023-02-11T06:11:15;50.04;48.98;51.50;;
37163;Laerm;23057;48.554;14.454;2023-02-11T06:13:47;50.04;48.87;51.47;;
37163;Laerm;23057;48.554;14.454;2023-02-11T06:16:17;50.03;48.88;52.02;;
37163;Laerm;23057;48.554;14.454;2023-02-11T06:18:48;50.04;49.02;51.61;;
37163;Laerm;23057;48.554;14.454;2023-02-11T06:21:19;50.04;48.88;51.53;;
37163;Laerm;23057;48.554;14.454;2023-02-11T06:23:49;50.05;48.74;52.13;;
37163;Laerm;23057;48.554;14.454;2023-02-11T06:26:22;50.05;49.00;52.13;;
37163;Laerm;23057;48.554;14.454;2023-02-11T06:28:53;50.06;48.95;52.31;;
37163;Laerm;23057;48.554;14.454;2023-02-11T06:31:23;50.05;48.99;52.07;;
37163;Laerm;23057;48.554;14.454;2023-02-11T06:33:54;50.03;48.83;51.19;;
37163;Laerm;23057;48.554;14.454;2023-02-11T06:36:25;50.04;48.70;52.10;;
37163;Laerm;23057;48.554;14.454;2023-02-11T06:38:56;50.03;48.80;51.46;;
37163;Laerm;23057;48.554;14.454;2023-02-11T06:41:27;50.04;48.87;51.91;;
37163;Laerm;23057;48.554;14.454;2023-02-11T06:43:57;50.08;48.85;52.37;;
37163;Laerm;23057;48.554;14.454;2023-02-11T06:46:28;50.08;48.76;52.09;;
37163;Laerm;23057;48.554;14.454;2023-02-11T06:48:59;50.04;49.00;52.24;;
37163;Laerm;23057;48.554;14.454;2023-02-11T06:51:30;50.04;48.85;52.33;;
37163;Laerm;23057;48.554;14.454;2023-02-11T06:54:01;50.04;48.69;53.19;;
37163;Laerm;23057;48.554;14.454;2023-02-11T06:56:32;50.04;48.96;52.00;;
37163;Laerm;23057;48.554;14.454;2023-02-11T06:59:03;50.03;49.06;51.52;;
37163;Laerm;23057;48.554;14.454;2023-02-11T07:01:34;50.04;48.81;51.65;;
37163;Laerm;23057;48.554;14.454;2023-02-11T07:04:04;50.07;48.83;51.42;;
37163;Laerm;23057;48.554;14.454;2023-02-11T07:06:36;50.07;49.07;52.56;;
37163;Laerm;23057;48.554;14.454;2023-02-11T07:09:07;50.08;49.00;52.44;;
37163;Laerm;23057;48.554;14.454;2023-02-11T07:11:38;50.10;49.07;52.33;;
37163;Laerm;23057;48.554;14.454;2023-02-11T07:14:09;50.07;48.90;51.98;;
37163;Laerm;23057;48.554;14.454;2023-02-11T07:16:40;50.04;48.94;51.98;;
37163;Laerm;23057;48.554;14.454;2023-02-11T07:19:10;50.04;48.92;51.76;;
37163;Laerm;23057;48.554;14.454;2023-02-11T07:21:41;50.05;49.06;51.96;;
37163;Laerm;23057;48.554;14.454;2023-02-11T07:24:12;50.05;49.06;51.31;;
37163;Laerm;23057;48.554;14.454;2023-02-11T07:26:43;50.04;48.99;51.44;;
37163;Laerm;23057;48.554;14.454;2023-02-11T07:29:14;50.05;48.96;51.75;;
37163;Laerm;23057;48.554;14.454;2023-02-11T07:31:45;50.05;48.91;51.39;;
37163;Laerm;23057;48.554;14.454;2023-02-11T07:34:16;50.05;48.74;52.28;;
37163;Laerm;23057;48.554;14.454;2023-02-11T07:36:47;50.05;49.04;52.13;;
37163;Laerm;23057;48.554;14.454;2023-02-11T07:39:18;50.06;49.07;52.04;;
37163;Laerm;23057;48.554;14.454;2023-02-11T07:41:51;50.05;48.99;51.08;;
37163;Laerm;23057;48.554;14.454;2023-02-11T07:44:22;50.03;48.95;51.63;;
37163;Laerm;23057;48.554;14.454;2023-02-11T07:46:53;50.04;48.91;52.07;;
37163;Laerm;23057;48.554;14.454;2023-02-11T07:49:24;50.05;48.99;53.42;;
37163;Laerm;23057;48.554;14.454;2023-02-11T07:51:54;50.07;48.91;52.42;;
37163;Laerm;23057;48.554;14.454;2023-02-11T07:54:26;50.07;48.88;52.31;;
37163;Laerm;23057;48.554;14.454;2023-02-11T07:56:57;50.05;48.78;52.13;;
37163;Laerm;23057;48.554;14.454;2023-02-11T07:59:28;50.04;49.03;51.40;;
37163;Laerm;23057;48.554;14.454;2023-02-11T08:01:59;50.04;48.96;51.17;;
37163;Laerm;23057;48.554;14.454;2023-02-11T08:04:29;50.05;48.90;51.84;;
37163;Laerm;23057;48.554;14.454;2023-02-11T08:07:00;50.04;48.98;51.84;;
37163;Laerm;23057;48.554;14.454;2023-02-11T08:09:31;50.03;49.04;51.86;;
37163;Laerm;23057;48.554;14.454;2023-02-11T08:12:02;50.06;49.11;51.64;;
37163;Laerm;23057;48.554;14.454;2023-02-11T08:14:33;50.04;49.00;51.68;;
37163;Laerm;23057;48.554;14.454;2023-02-11T08:17:03;50.03;48.81;52.26;;
37163;Laerm;23057;48.554;14.454;2023-02-11T08:19:34;50.04;49.03;51.74;;
37163;Laerm;23057;48.554;14.454;2023-02-11T08:22:05;50.04;48.85;51.87;;
37163;Laerm;23057;48.554;14.454;2023-02-11T08:24:36;50.03;48.99;51.84;;
37163;Laerm;23057;48.554;14.454;2023-02-11T08:27:07;50.02;48.98;52.17;;
37163;Laerm;23057;48.554;14.454;2023-02-11T08:29:37;50.04;48.98;51.16;;
37163;Laerm;23057;48.554;14.454;2023-02-11T08:32:08;50.03;49.04;51.26;;
37163;Laerm;23057;48.554;14.454;2023-02-11T08:34:39;50.03;48.88;51.63;;
37163;Laerm;23057;48.554;14.454;2023-02-11T08:37:10;50.05;49.04;55.63;;
37163;Laerm;23057;48.554;14.454;2023-02-11T08:39:41;50.03;49.00;51.41;;
37163;Laerm;23057;48.554;14.454;2023-02-11T08:42:12;50.03;48.71;51.90;;
37163;Laerm;23057;48.554;14.454;2023-02-11T08:44:45;50.03;48.98;52.45;;
37163;Laerm;23057;48.554;14.454;2023-02-11T08:47:15;50.04;49.15;52.04;;
37163;Laerm;23057;48.554;14.454;2023-02-11T08:49:46;50.03;48.88;51.68;;
37163;Laerm;23057;48.554;14.454;2023-02-11T08:52:17;50.04;48.90;51.44;;
37163;Laerm;23057;48.554;14.454;2023-02-11T08:54:47;50.03;48.87;52.25;;
37163;Laerm;23057;48.554;14.454;2023-02-11T08:57:18;50.04;49.02;52.42;;
37163;Laerm;23057;48.554;14.454;2023-02-11T08:59:49;50.03;48.85;51.22;;
37163;Laerm;23057;48.554;14.454;2023-02-11T09:02:20;50.03;48.96;51.37;;
37163;Laerm;23057;48.554;14.454;2023-02-11T09:04:51;50.03;48.99;51.41;;
37163;Laerm;23057;48.554;14.454;2023-02-11T09:07:21;50.03;48.74;52.04;;
37163;Laerm;23057;48.554;14.454;2023-02-11T09:09:52;50.04;48.99;51.40;;
37163;Laerm;23057;48.554;14.454;2023-02-11T09:12:23;50.04;48.95;51.53;;
37163;Laerm;23057;48.554;14.454;2023-02-11T09:14:53;50.04;49.00;53.48;;
37163;Laerm;23057;48.554;14.454;2023-02-11T09:17:24;50.03;48.87;52.26;;
37163;Laerm;23057;48.554;14.454;2023-02-11T09:19:55;50.04;49.06;51.52;;
37163;Laerm;23057;48.554;14.454;2023-02-11T09:22:26;50.08;48.95;51.82;;
37163;Laerm;23057;48.554;14.454;2023-02-11T09:24:56;50.05;48.92;51.31;;
37163;Laerm;23057;48.554;14.454;2023-02-11T09:27:27;50.04;48.96;52.08;;
37163;Laerm;23057;48.554;14.454;2023-02-11T09:29:58;50.05;48.98;51.30;;
37163;Laerm;23057;48.554;14.454;2023-02-11T09:32:29;50.04;48.85;51.49;;
37163;Laerm;23057;48.554;14.454;2023-02-11T09:34:59;50.05;48.94;51.68;;
37163;Laerm;23057;48.554;14.454;2023-02-11T09:37:30;50.07;48.84;52.09;;
37163;Laerm;23057;48.554;14.454;2023-02-11T09:40:01;50.08;49.02;51.26;;
37163;Laerm;23057;48.554;14.454;2023-02-11T09:43:09;50.08;48.96;51.27;;
37163;Laerm;23057;48.554;14.454;2023-02-11T09:45:41;50.09;48.91;51.37;;
37163;Laerm;23057;48.554;14.454;2023-02-11T09:48:21;50.07;48.95;51.78;;
37163;Laerm;23057;48.554;14.454;2023-02-11T09:50:57;50.07;48.69;52.12;;
37163;Laerm;23057;48.554;14.454;2023-02-11T09:53:35;50.09;48.95;51.10;;
37163;Laerm;23057;48.554;14.454;2023-02-11T09:56:13;50.09;48.94;52.42;;
37163;Laerm;23057;48.554;14.454;2023-02-11T09:58:44;50.09;49.04;51.61;;
37163;Laerm;23057;48.554;14.454;2023-02-11T10:01:46;50.07;49.04;51.52;;
37163;Laerm;23057;48.554;14.454;2023-02-11T10:10:19;50.08;48.94;52.15;;
37163;Laerm;23057;48.554;14.454;2023-02-11T10:19:59;50.08;49.06;51.75;;
37163;Laerm;23057;48.554;14.454;2023-02-11T10:22:49;50.07;48.94;51.15;;
37163;Laerm;23057;48.554;14.454;2023-02-11T10:25:32;50.10;48.73;51.16;;
37163;Laerm;23057;48.554;14.454;2023-02-11T10:28:18;50.07;48.73;52.21;;
37163;Laerm;23057;48.554;14.454;2023-02-11T10:30:58;50.10;48.94;54.97;;
37163;Laerm;23057;48.554;14.454;2023-02-11T10:33:46;50.10;49.02;51.54;;
37163;Laerm;23057;48.554;14.454;2023-02-11T10:36:27;50.08;48.71;52.40;;
37163;Laerm;23057;48.554;14.454;2023-02-11T10:39:18;50.07;48.94;51.52;;
37163;Laerm;23057;48.554;14.454;2023-02-11T10:41:55;50.08;49.00;51.40;;
37163;Laerm;23057;48.554;14.454;2023-02-11T10:44:39;50.06;49.04;51.87;;
37163;Laerm;23057;48.554;14.454;2023-02-11T10:47:34;50.09;48.87;52.09;;
37163;Laerm;23057;48.554;14.454;2023-02-11T10:50:29;50.07;48.87;51.75;;
37163;Laerm;23057;48.554;14.454;2023-02-11T10:53:20;50.09;48.78;51.22;;
37163;Laerm;23057;48.554;14.454;2023-02-11T10:55:55;50.09;49.02;51.10;;
37163;Laerm;23057;48.554;14.454;2023-02-11T10:58:36;50.09;48.84;52.04;;
37163;Laerm;23057;48.554;14.454;2023-02-11T11:01:10;50.07;49.03;51.19;;
37163;Laerm;23057;48.554;14.454;2023-02-11T11:03:48;50.08;49.02;51.24;;
37163;Laerm;23057;48.554;14.454;2023-02-11T11:06:33;50.07;48.88;51.70;;
37163;Laerm;23057;48.554;14.454;2023-02-11T11:09:04;50.07;49.00;51.18;;
37163;Laerm;23057;48.554;14.454;2023-02-11T11:11:51;50.07;48.91;51.35;;
37163;Laerm;23057;48.554;14.454;2023-02-11T11:14:24;50.05;49.06;51.30;;
37163;Laerm;23057;48.554;14.454;2023-02-11T11:16:58;50.05;48.98;52.18;;
37163;Laerm;23057;48.554;14.454;2023-02-11T11:19:29;50.04;48.95;51.62;;
37163;Laerm;23057;48.554;14.454;2023-02-11T11:21:59;50.06;49.02;51.37;;
37163;Laerm;23057;48.554;14.454;2023-02-11T11:24:44;50.10;49.03;51.16;;
37163;Laerm;23057;48.554;14.454;2023-02-11T11:27:22;50.14;48.91;51.99;;
37163;Laerm;23057;48.554;14.454;2023-02-11T11:29:55;50.09;48.94;51.50;;
37163;Laerm;23057;48.554;14.454;2023-02-11T11:32:30;50.11;49.08;51.23;;
37163;Laerm;23057;48.554;14.454;2023-02-11T11:35:23;50.11;49.00;51.92;;
37163;Laerm;23057;48.554;14.454;2023-02-11T11:38:02;50.07;49.07;52.24;;
37163;Laerm;23057;48.554;14.454;2023-02-11T11:40:34;50.09;49.07;52.15;;
37163;Laerm;23057;48.554;14.454;2023-02-11T11:43:17;50.10;48.92;52.22;;
37163;Laerm;23057;48.554;14.454;2023-02-11T11:45:57;50.10;49.04;52.54;;
37163;Laerm;23057;48.554;14.454;2023-02-11T11:48:36;50.09;49.10;52.62;;
37163;Laerm;23057;48.554;14.454;2023-02-11T11:51:11;50.07;48.98;52.67;;
37163;Laerm;23057;48.554;14.454;2023-02-11T11:54:02;50.07;48.88;52.17;;
37163;Laerm;23057;48.554;14.454;2023-02-11T11:57:17;50.05;48.88;51.89;;
37163;Laerm;23057;48.554;14.454;2023-02-11T11:59:49;50.07;48.95;51.77;;
37163;Laerm;23057;48.554;14.454;2023-02-11T12:06:01;50.10;48.96;52.36;;
37163;Laerm;23057;48.554;14.454;2023-02-11T12:25:55;50.09;49.10;52.35;;
37163;Laerm;23057;48.554;14.454;2023-02-11T12:28:59;50.08;48.85;52.30;;
37163;Laerm;23057;48.554;14.454;2023-02-11T12:35:27;50.07;49.00;52.35;;
37163;Laerm;23057;48.554;14.454;2023-02-11T12:53:47;50.07;49.04;52.51;;
37163;Laerm;23057;48.554;14.454;2023-02-11T12:56:24;50.06;48.83;51.97;;
37163;Laerm;23057;48.554;14.454;2023-02-11T12:59:01;50.06;48.77;51.50;;
37163;Laerm;23057;48.554;14.454;2023-02-11T13:01:42;50.06;48.88;51.22;;
37163;Laerm;23057;48.554;14.454;2023-02-11T13:04:32;50.06;48.91;51.77;;
37163;Laerm;23057;48.554;14.454;2023-02-11T13:07:24;50.05;48.88;52.14;;
37163;Laerm;23057;48.554;14.454;2023-02-11T13:10:22;50.06;48.85;51.26;;
37163;Laerm;23057;48.554;14.454;2023-02-11T13:12:57;50.06;49.02;51.58;;
37163;Laerm;23057;48.554;14.454;2023-02-11T13:16:03;50.05;48.77;51.47;;
37163;Laerm;23057;48.554;14.454;2023-02-11T13:24:43;50.06;48.96;51.41;;
37163;Laerm;23057;48.554;14.454;2023-02-11T13:27:45;50.05;48.90;52.25;;
37163;Laerm;23057;48.554;14.454;2023-02-11T13:30:32;50.06;48.85;51.12;;
37163;Laerm;23057;48.554;14.454;2023-02-11T13:33:17;50.08;49.08;52.82;;
37163;Laerm;23057;48.554;14.454;2023-02-11T13:38:28;50.07;48.96;51.65;;
37163;Laerm;23057;48.554;14.454;2023-02-11T13:41:17;50.06;48.98;51.26;;
37163;Laerm;23057;48.554;14.454;2023-02-11T13:44:24;50.06;48.95;51.72;;
37163;Laerm;23057;48.554;14.454;2023-02-11T13:47:06;50.06;48.95;51.88;;
37163;Laerm;23057;48.554;14.454;2023-02-11T13:49:40;50.06;48.85;51.23;;
37163;Laerm;23057;48.554;14.454;2023-02-11T13:52:31;50.06;48.78;51.47;;
37163;Laerm;23057;48.554;14.454;2023-02-11T13:55:24;50.06;49.06;51.38;;
37163;Laerm;23057;48.554;14.454;2023-02-11T14:00:48;50.05;49.03;51.19;;
37163;Laerm;23057;48.554;14.454;2023-02-11T14:03:30;50.05;48.87;51.59;;
37163;Laerm;23057;48.554;14.454;2023-02-11T14:06:24;50.04;48.91;52.02;;
37163;Laerm;23057;48.554;14.454;2023-02-11T14:09:38;50.03;48.98;51.56;;
37163;Laerm;23057;48.554;14.454;2023-02-11T14:12:31;50.03;48.99;52.06;;
37163;Laerm;23057;48.554;14.454;2023-02-11T14:17:42;50.04;48.90;52.29;;
37163;Laerm;23057;48.554;14.454;2023-02-11T14:20:37;50.04;48.98;51.89;;
37163;Laerm;23057;48.554;14.454;2023-02-11T14:23:23;50.07;48.92;52.06;;
37163;Laerm;23057;48.554;14.454;2023-02-11T14:26:13;50.06;48.82;52.28;;
37163;Laerm;23057;48.554;14.454;2023-02-11T14:29:15;50.06;48.92;51.06;;
37163;Laerm;23057;48.554;14.454;2023-02-11T14:41:13;50.05;48.83;51.47;;
37163;Laerm;23057;48.554;14.454;2023-02-11T14:43:56;50.06;48.88;53.24;;
37163;Laerm;23057;48.554;14.454;2023-02-11T14:46:28;50.08;49.04;51.55;;
37163;Laerm;23057;48.554;14.454;2023-02-11T14:49:03;50.05;48.87;51.33;;
37163;Laerm;23057;48.554;14.454;2023-02-11T14:51:38;50.06;48.99;52.03;;
37163;Laerm;23057;48.554;14.454;2023-02-11T14:54:16;50.08;49.03;54.21;;
37163;Laerm;23057;48.554;14.454;2023-02-11T14:57:13;50.07;48.99;52.27;;
37163;Laerm;23057;48.554;14.454;2023-02-11T14:59:59;50.06;49.08;51.53;;
37163;Laerm;23057;48.554;14.454;2023-02-11T15:02:35;50.07;48.94;52.13;;
37163;Laerm;23057;48.554;14.454;2023-02-11T15:05:23;50.07;49.00;52.21;;
37163;Laerm;23057;48.554;14.454;2023-02-11T15:08:03;50.06;49.08;52.38;;
37163;Laerm;23057;48.554;14.454;2023-02-11T15:10:41;50.06;49.06;52.12;;
37163;Laerm;23057;48.554;14.454;2023-02-11T15:13:19;50.06;48.76;51.53;;
37163;Laerm;23057;48.554;14.454;2023-02-11T15:16:07;50.06;48.90;52.41;;
37163;Laerm;23057;48.554;14.454;2023-02-11T15:18:44;50.07;49.04;51.87;;
37163;Laerm;23057;48.554;14.454;2023-02-11T15:21:23;50.05;48.94;52.07;;
37163;Laerm;23057;48.554;14.454;2023-02-11T15:24:29;50.05;49.00;51.68;;
37163;Laerm;23057;48.554;14.454;2023-02-11T15:29:46;50.06;48.99;53.00;;
37163;Laerm;23057;48.554;14.454;2023-02-11T15:32:24;50.05;48.95;51.34;;
37163;Laerm;23057;48.554;14.454;2023-02-11T15:34:55;50.05;48.92;52.20;;
37163;Laerm;23057;48.554;14.454;2023-02-11T15:37:28;50.04;49.08;51.53;;
37163;Laerm;23057;48.554;14.454;2023-02-11T15:40:22;50.03;48.91;51.84;;
37163;Laerm;23057;48.554;14.454;2023-02-11T15:43:08;50.03;48.90;51.66;;
37163;Laerm;23057;48.554;14.454;2023-02-11T15:46:18;50.06;49.02;51.37;;
37163;Laerm;23057;48.554;14.454;2023-02-11T15:48:52;50.04;49.04;51.36;;
37163;Laerm;23057;48.554;14.454;2023-02-11T15:51:31;50.05;49.00;51.42;;
37163;Laerm;23057;48.554;14.454;2023-02-11T15:54:15;50.04;49.03;51.52;;
37163;Laerm;23057;48.554;14.454;2023-02-11T15:56:50;50.03;48.87;52.29;;
37163;Laerm;23057;48.554;14.454;2023-02-11T15:59:28;50.03;48.94;51.34;;
37163;Laerm;23057;48.554;14.454;2023-02-11T16:02:29;50.05;48.81;51.45;;
37163;Laerm;23057;48.554;14.454;2023-02-11T16:05:08;50.04;48.99;51.53;;